sensor_id;sensor_type;location;lat;lon;timestamp;P1;durP1;ratioP1;P2;durP2;ratioP2
79126;SDS011;68528;48.814;8.904;2023-07-02T00:01:53;4.30;;;2.88;;
79126;SDS011;68528;48.814;8.904;2023-07-02T00:04:19;5.07;;;3.05;;
79126;SDS011;68528;48.814;8.904;2023-07-02T00:12:42;6.00;;;3.15;;
79126;SDS011;68528;48.814;8.904;2023-07-02T00:26:09;8.07;;;3.70;;
79126;SDS011;68528;48.814;8.904;2023-07-02T00:28:34;3.38;;;3.05;;
79126;SDS011;68528;48.814;8.904;2023-07-02T00:30:59;3.83;;;2.42;;
79126;SDS011;68528;48.814;8.904;2023-07-02T00:33:26;5.00;;;3.22;;
79126;SDS011;68528;48.814;8.904;2023-07-02T00:35:51;3.38;;;2.78;;
79126;SDS011;68528;48.814;8.904;2023-07-02T00:38:16;4.60;;;2.88;;
79126;SDS011;68528;48.814;8.904;2023-07-02T00:40:42;5.82;;;2.80;;
79126;SDS011;68528;48.814;8.904;2023-07-02T00:43:07;5.45;;;3.40;;
79126;SDS011;68528;48.814;8.904;2023-07-02T00:45:40;5.72;;;3.70;;
79126;SDS011;68528;48.814;8.904;2023-07-02T00:48:07;4.15;;;2.35;;
79126;SDS011;68528;48.814;8.904;2023-07-02T00:50:39;5.10;;;2.22;;
79126;SDS011;68528;48.814;8.904;2023-07-02T00:53:07;3.92;;;2.92;;
79126;SDS011;68528;48.814;8.904;2023-07-02T00:58:02;5.13;;;2.83;;
79126;SDS011;68528;48.814;8.904;2023-07-02T01:00:29;3.60;;;2.53;;
79126;SDS011;68528;48.814;8.904;2023-07-02T01:02:55;3.53;;;2.78;;
79126;SDS011;68528;48.814;8.904;2023-07-02T01:11:59;5.72;;;2.85;;
79126;SDS011;68528;48.814;8.904;2023-07-02T01:14:32;6.43;;;2.70;;
79126;SDS011;68528;48.814;8.904;2023-07-02T01:17:01;4.22;;;2.95;;
79126;SDS011;68528;48.814;8.904;2023-07-02T01:22:33;5.13;;;2.95;;
79126;SDS011;68528;48.814;8.904;2023-07-02T01:25:00;5.03;;;2.85;;
79126;SDS011;68528;48.814;8.904;2023-07-02T01:27:27;3.63;;;2.67;;
79126;SDS011;68528;48.814;8.904;2023-07-02T01:29:54;4.38;;;3.33;;
79126;SDS011;68528;48.814;8.904;2023-07-02T01:32:20;5.10;;;3.17;;
79126;SDS011;68528;48.814;8.904;2023-07-02T01:34:46;3.47;;;2.47;;
79126;SDS011;68528;48.814;8.904;2023-07-02T01:37:14;4.65;;;2.95;;
79126;SDS011;68528;48.814;8.904;2023-07-02T01:39:43;6.03;;;3.28;;
79126;SDS011;68528;48.814;8.904;2023-07-02T01:42:10;4.95;;;2.70;;
79126;SDS011;68528;48.814;8.904;2023-07-02T01:44:38;4.63;;;3.25;;
79126;SDS011;68528;48.814;8.904;2023-07-02T01:47:04;5.00;;;3.03;;
79126;SDS011;68528;48.814;8.904;2023-07-02T01:49:30;4.50;;;3.10;;
79126;SDS011;68528;48.814;8.904;2023-07-02T01:51:56;9.52;;;3.08;;
79126;SDS011;68528;48.814;8.904;2023-07-02T01:54:24;6.78;;;2.97;;
79126;SDS011;68528;48.814;8.904;2023-07-02T01:56:54;5.13;;;3.05;;
79126;SDS011;68528;48.814;8.904;2023-07-02T01:59:21;4.68;;;3.33;;
79126;SDS011;68528;48.814;8.904;2023-07-02T02:01:47;4.40;;;3.00;;
79126;SDS011;68528;48.814;8.904;2023-07-02T02:04:13;5.55;;;2.53;;
79126;SDS011;68528;48.814;8.904;2023-07-02T02:06:39;4.75;;;2.80;;
79126;SDS011;68528;48.814;8.904;2023-07-02T02:09:06;3.55;;;2.50;;
79126;SDS011;68528;48.814;8.904;2023-07-02T02:11:34;3.13;;;2.72;;
79126;SDS011;68528;48.814;8.904;2023-07-02T02:14:03;6.93;;;3.00;;
79126;SDS011;68528;48.814;8.904;2023-07-02T02:16:29;3.67;;;2.90;;
79126;SDS011;68528;48.814;8.904;2023-07-02T02:18:54;4.57;;;3.45;;
79126;SDS011;68528;48.814;8.904;2023-07-02T02:21:21;3.38;;;3.03;;
79126;SDS011;68528;48.814;8.904;2023-07-02T02:23:47;6.43;;;2.70;;
79126;SDS011;68528;48.814;8.904;2023-07-02T02:26:15;5.43;;;2.92;;
79126;SDS011;68528;48.814;8.904;2023-07-02T02:28:41;3.28;;;2.75;;
79126;SDS011;68528;48.814;8.904;2023-07-02T02:31:07;3.60;;;2.83;;
79126;SDS011;68528;48.814;8.904;2023-07-02T02:33:33;3.65;;;2.30;;
79126;SDS011;68528;48.814;8.904;2023-07-02T02:36:02;4.85;;;2.80;;
79126;SDS011;68528;48.814;8.904;2023-07-02T02:38:27;6.93;;;2.58;;
79126;SDS011;68528;48.814;8.904;2023-07-02T02:40:53;3.38;;;2.25;;
79126;SDS011;68528;48.814;8.904;2023-07-02T02:43:18;5.13;;;2.90;;
79126;SDS011;68528;48.814;8.904;2023-07-02T02:45:45;3.60;;;2.58;;
79126;SDS011;68528;48.814;8.904;2023-07-02T02:48:12;5.63;;;2.78;;
79126;SDS011;68528;48.814;8.904;2023-07-02T02:50:39;3.65;;;2.75;;
79126;SDS011;68528;48.814;8.904;2023-07-02T02:53:08;8.48;;;4.07;;
79126;SDS011;68528;48.814;8.904;2023-07-02T03:09:14;5.55;;;3.55;;
79126;SDS011;68528;48.814;8.904;2023-07-02T03:11:40;5.63;;;3.20;;
79126;SDS011;68528;48.814;8.904;2023-07-02T03:14:06;5.68;;;3.17;;
79126;SDS011;68528;48.814;8.904;2023-07-02T03:16:31;8.50;;;3.30;;
79126;SDS011;68528;48.814;8.904;2023-07-02T03:18:58;7.40;;;3.95;;
79126;SDS011;68528;48.814;8.904;2023-07-02T03:21:24;7.63;;;3.80;;
79126;SDS011;68528;48.814;8.904;2023-07-02T03:23:49;8.20;;;3.50;;
79126;SDS011;68528;48.814;8.904;2023-07-02T03:26:15;8.13;;;3.88;;
79126;SDS011;68528;48.814;8.904;2023-07-02T03:28:41;6.07;;;3.45;;
79126;SDS011;68528;48.814;8.904;2023-07-02T03:31:06;9.32;;;3.50;;
79126;SDS011;68528;48.814;8.904;2023-07-02T03:33:32;4.57;;;3.22;;
79126;SDS011;68528;48.814;8.904;2023-07-02T03:35:57;7.70;;;3.92;;
79126;SDS011;68528;48.814;8.904;2023-07-02T03:38:23;10.15;;;3.72;;
79126;SDS011;68528;48.814;8.904;2023-07-02T03:40:49;8.52;;;3.50;;
79126;SDS011;68528;48.814;8.904;2023-07-02T03:43:14;7.30;;;3.25;;
79126;SDS011;68528;48.814;8.904;2023-07-02T03:45:40;7.28;;;3.60;;
79126;SDS011;68528;48.814;8.904;2023-07-02T03:48:06;6.57;;;3.47;;
79126;SDS011;68528;48.814;8.904;2023-07-02T03:50:33;6.50;;;3.67;;
79126;SDS011;68528;48.814;8.904;2023-07-02T03:52:59;7.57;;;3.72;;
79126;SDS011;68528;48.814;8.904;2023-07-02T03:55:24;8.55;;;3.60;;
79126;SDS011;68528;48.814;8.904;2023-07-02T03:57:50;6.38;;;3.50;;
79126;SDS011;68528;48.814;8.904;2023-07-02T04:00:15;7.22;;;4.00;;
79126;SDS011;68528;48.814;8.904;2023-07-02T04:02:41;7.50;;;3.20;;
79126;SDS011;68528;48.814;8.904;2023-07-02T04:05:06;6.50;;;3.67;;
79126;SDS011;68528;48.814;8.904;2023-07-02T04:07:32;7.32;;;3.72;;
79126;SDS011;68528;48.814;8.904;2023-07-02T04:09:58;6.00;;;3.28;;
79126;SDS011;68528;48.814;8.904;2023-07-02T04:12:23;7.43;;;3.38;;
79126;SDS011;68528;48.814;8.904;2023-07-02T04:14:49;8.38;;;3.90;;
79126;SDS011;68528;48.814;8.904;2023-07-02T04:17:14;8.13;;;3.42;;
79126;SDS011;68528;48.814;8.904;2023-07-02T04:19:40;10.52;;;3.88;;
79126;SDS011;68528;48.814;8.904;2023-07-02T04:22:21;6.57;;;3.53;;
79126;SDS011;68528;48.814;8.904;2023-07-02T04:27:14;8.25;;;4.07;;
79126;SDS011;68528;48.814;8.904;2023-07-02T04:29:45;7.78;;;3.63;;
79126;SDS011;68528;48.814;8.904;2023-07-02T04:32:10;6.30;;;3.65;;
79126;SDS011;68528;48.814;8.904;2023-07-02T04:34:36;5.30;;;3.28;;
79126;SDS011;68528;48.814;8.904;2023-07-02T04:37:05;4.60;;;3.22;;
79126;SDS011;68528;48.814;8.904;2023-07-02T04:39:31;4.47;;;3.20;;
79126;SDS011;68528;48.814;8.904;2023-07-02T04:41:56;6.13;;;3.60;;
79126;SDS011;68528;48.814;8.904;2023-07-02T04:44:23;5.47;;;3.13;;
79126;SDS011;68528;48.814;8.904;2023-07-02T04:46:57;6.68;;;4.20;;
79126;SDS011;68528;48.814;8.904;2023-07-02T04:49:23;9.35;;;3.80;;
79126;SDS011;68528;48.814;8.904;2023-07-02T04:51:49;6.35;;;3.20;;
79126;SDS011;68528;48.814;8.904;2023-07-02T04:54:14;6.82;;;3.10;;
79126;SDS011;68528;48.814;8.904;2023-07-02T04:56:39;5.67;;;3.50;;
79126;SDS011;68528;48.814;8.904;2023-07-02T04:59:05;5.57;;;3.87;;
79126;SDS011;68528;48.814;8.904;2023-07-02T05:01:30;6.97;;;3.63;;
79126;SDS011;68528;48.814;8.904;2023-07-02T05:03:58;6.95;;;3.75;;
79126;SDS011;68528;48.814;8.904;2023-07-02T05:06:23;5.03;;;3.22;;
79126;SDS011;68528;48.814;8.904;2023-07-02T05:08:48;5.78;;;3.28;;
79126;SDS011;68528;48.814;8.904;2023-07-02T05:11:14;6.38;;;2.97;;
79126;SDS011;68528;48.814;8.904;2023-07-02T05:13:39;5.30;;;2.95;;
79126;SDS011;68528;48.814;8.904;2023-07-02T05:16:05;7.20;;;3.15;;
79126;SDS011;68528;48.814;8.904;2023-07-02T05:18:46;5.65;;;3.03;;
79126;SDS011;68528;48.814;8.904;2023-07-02T05:22:19;5.72;;;3.00;;
79126;SDS011;68528;48.814;8.904;2023-07-02T05:24:45;9.13;;;3.42;;
79126;SDS011;68528;48.814;8.904;2023-07-02T05:27:11;5.70;;;3.88;;
79126;SDS011;68528;48.814;8.904;2023-07-02T05:29:38;10.80;;;3.85;;
79126;SDS011;68528;48.814;8.904;2023-07-02T05:32:03;8.37;;;4.03;;
79126;SDS011;68528;48.814;8.904;2023-07-02T05:34:29;7.45;;;3.35;;
79126;SDS011;68528;48.814;8.904;2023-07-02T05:36:54;13.75;;;4.68;;
79126;SDS011;68528;48.814;8.904;2023-07-02T05:39:20;11.20;;;3.80;;
79126;SDS011;68528;48.814;8.904;2023-07-02T05:41:46;8.27;;;3.70;;
79126;SDS011;68528;48.814;8.904;2023-07-02T05:44:12;6.55;;;3.03;;
79126;SDS011;68528;48.814;8.904;2023-07-02T05:46:37;7.25;;;3.88;;
79126;SDS011;68528;48.814;8.904;2023-07-02T05:49:03;11.45;;;3.90;;
79126;SDS011;68528;48.814;8.904;2023-07-02T05:51:28;9.07;;;3.38;;
79126;SDS011;68528;48.814;8.904;2023-07-02T05:53:53;7.88;;;4.45;;
79126;SDS011;68528;48.814;8.904;2023-07-02T05:56:19;9.90;;;4.43;;
79126;SDS011;68528;48.814;8.904;2023-07-02T05:59:03;7.55;;;3.78;;
79126;SDS011;68528;48.814;8.904;2023-07-02T06:01:29;6.75;;;3.60;;
79126;SDS011;68528;48.814;8.904;2023-07-02T06:03:54;8.43;;;3.70;;
79126;SDS011;68528;48.814;8.904;2023-07-02T06:06:21;13.85;;;4.10;;
79126;SDS011;68528;48.814;8.904;2023-07-02T06:08:50;9.65;;;3.85;;
79126;SDS011;68528;48.814;8.904;2023-07-02T06:11:15;9.05;;;3.83;;
79126;SDS011;68528;48.814;8.904;2023-07-02T06:13:41;7.78;;;4.13;;
79126;SDS011;68528;48.814;8.904;2023-07-02T06:16:07;9.45;;;4.40;;
79126;SDS011;68528;48.814;8.904;2023-07-02T06:18:32;6.53;;;3.65;;
79126;SDS011;68528;48.814;8.904;2023-07-02T06:20:57;8.30;;;4.53;;
79126;SDS011;68528;48.814;8.904;2023-07-02T06:23:23;9.45;;;4.32;;
79126;SDS011;68528;48.814;8.904;2023-07-02T06:25:48;9.60;;;4.05;;
79126;SDS011;68528;48.814;8.904;2023-07-02T06:28:16;14.40;;;5.03;;
79126;SDS011;68528;48.814;8.904;2023-07-02T06:30:42;10.20;;;4.40;;
79126;SDS011;68528;48.814;8.904;2023-07-02T06:33:07;12.38;;;4.93;;
79126;SDS011;68528;48.814;8.904;2023-07-02T06:35:33;11.73;;;4.57;;
79126;SDS011;68528;48.814;8.904;2023-07-02T06:38:01;11.43;;;4.93;;
79126;SDS011;68528;48.814;8.904;2023-07-02T06:40:28;10.65;;;4.93;;
79126;SDS011;68528;48.814;8.904;2023-07-02T06:42:54;9.95;;;5.03;;
79126;SDS011;68528;48.814;8.904;2023-07-02T06:45:19;10.73;;;4.85;;
79126;SDS011;68528;48.814;8.904;2023-07-02T06:47:44;11.93;;;5.13;;
79126;SDS011;68528;48.814;8.904;2023-07-02T06:50:10;11.83;;;5.90;;
79126;SDS011;68528;48.814;8.904;2023-07-02T06:52:41;14.05;;;6.82;;
79126;SDS011;68528;48.814;8.904;2023-07-02T06:55:07;12.68;;;6.47;;
79126;SDS011;68528;48.814;8.904;2023-07-02T06:57:33;16.50;;;7.03;;
79126;SDS011;68528;48.814;8.904;2023-07-02T06:59:59;12.38;;;6.32;;
79126;SDS011;68528;48.814;8.904;2023-07-02T07:02:25;12.00;;;6.00;;
79126;SDS011;68528;48.814;8.904;2023-07-02T07:04:51;10.60;;;6.03;;
79126;SDS011;68528;48.814;8.904;2023-07-02T07:07:17;14.80;;;6.10;;
79126;SDS011;68528;48.814;8.904;2023-07-02T07:09:42;15.80;;;7.05;;
79126;SDS011;68528;48.814;8.904;2023-07-02T07:12:07;12.20;;;5.90;;
79126;SDS011;68528;48.814;8.904;2023-07-02T07:14:33;13.90;;;7.50;;
79126;SDS011;68528;48.814;8.904;2023-07-02T07:16:58;17.15;;;7.60;;
79126;SDS011;68528;48.814;8.904;2023-07-02T07:19:23;16.02;;;6.72;;
79126;SDS011;68528;48.814;8.904;2023-07-02T07:21:49;12.93;;;6.22;;
79126;SDS011;68528;48.814;8.904;2023-07-02T07:24:14;13.00;;;6.45;;
79126;SDS011;68528;48.814;8.904;2023-07-02T07:26:41;19.50;;;7.30;;
79126;SDS011;68528;48.814;8.904;2023-07-02T07:29:06;19.08;;;7.40;;
79126;SDS011;68528;48.814;8.904;2023-07-02T07:31:32;12.82;;;7.65;;
79126;SDS011;68528;48.814;8.904;2023-07-02T07:33:57;16.70;;;7.57;;
79126;SDS011;68528;48.814;8.904;2023-07-02T07:36:28;17.23;;;8.05;;
79126;SDS011;68528;48.814;8.904;2023-07-02T07:38:57;19.27;;;8.82;;
79126;SDS011;68528;48.814;8.904;2023-07-02T07:41:23;17.25;;;7.88;;
79126;SDS011;68528;48.814;8.904;2023-07-02T07:43:48;22.90;;;9.13;;
79126;SDS011;68528;48.814;8.904;2023-07-02T07:46:14;17.70;;;9.10;;
79126;SDS011;68528;48.814;8.904;2023-07-02T07:48:39;17.70;;;9.20;;
79126;SDS011;68528;48.814;8.904;2023-07-02T07:51:05;21.08;;;8.50;;
79126;SDS011;68528;48.814;8.904;2023-07-02T07:53:41;19.35;;;7.80;;
79126;SDS011;68528;48.814;8.904;2023-07-02T07:56:07;17.98;;;8.40;;
79126;SDS011;68528;48.814;8.904;2023-07-02T07:58:33;19.88;;;8.82;;
79126;SDS011;68528;48.814;8.904;2023-07-02T08:00:58;16.00;;;7.93;;
79126;SDS011;68528;48.814;8.904;2023-07-02T08:03:23;19.75;;;8.18;;
79126;SDS011;68528;48.814;8.904;2023-07-02T08:05:49;15.23;;;7.15;;
79126;SDS011;68528;48.814;8.904;2023-07-02T08:08:14;18.88;;;8.43;;
79126;SDS011;68528;48.814;8.904;2023-07-02T08:10:40;17.65;;;7.80;;
79126;SDS011;68528;48.814;8.904;2023-07-02T08:13:05;20.33;;;9.52;;
79126;SDS011;68528;48.814;8.904;2023-07-02T08:15:31;23.88;;;8.88;;
79126;SDS011;68528;48.814;8.904;2023-07-02T08:17:56;14.60;;;7.63;;
79126;SDS011;68528;48.814;8.904;2023-07-02T08:20:23;17.67;;;8.40;;
79126;SDS011;68528;48.814;8.904;2023-07-02T08:22:49;14.68;;;8.02;;
79126;SDS011;68528;48.814;8.904;2023-07-02T08:25:16;17.00;;;8.40;;
79126;SDS011;68528;48.814;8.904;2023-07-02T08:27:43;18.33;;;8.75;;
79126;SDS011;68528;48.814;8.904;2023-07-02T08:30:09;24.70;;;9.73;;
79126;SDS011;68528;48.814;8.904;2023-07-02T08:32:35;16.90;;;7.90;;
79126;SDS011;68528;48.814;8.904;2023-07-02T08:35:00;22.48;;;8.85;;
79126;SDS011;68528;48.814;8.904;2023-07-02T08:37:26;19.10;;;8.38;;
79126;SDS011;68528;48.814;8.904;2023-07-02T08:39:51;19.70;;;8.95;;
79126;SDS011;68528;48.814;8.904;2023-07-02T08:42:17;16.48;;;8.30;;
79126;SDS011;68528;48.814;8.904;2023-07-02T08:44:46;16.17;;;8.45;;
79126;SDS011;68528;48.814;8.904;2023-07-02T08:47:14;16.42;;;9.27;;
79126;SDS011;68528;48.814;8.904;2023-07-02T08:49:41;17.38;;;8.20;;
79126;SDS011;68528;48.814;8.904;2023-07-02T08:52:06;16.13;;;7.78;;
79126;SDS011;68528;48.814;8.904;2023-07-02T08:54:32;17.20;;;8.20;;
79126;SDS011;68528;48.814;8.904;2023-07-02T08:56:57;19.50;;;8.63;;
79126;SDS011;68528;48.814;8.904;2023-07-02T08:59:23;24.23;;;9.75;;
79126;SDS011;68528;48.814;8.904;2023-07-02T09:01:51;17.55;;;8.48;;
79126;SDS011;68528;48.814;8.904;2023-07-02T09:04:22;19.02;;;8.48;;
79126;SDS011;68528;48.814;8.904;2023-07-02T09:06:49;14.20;;;8.48;;
79126;SDS011;68528;48.814;8.904;2023-07-02T09:09:49;22.55;;;9.52;;
79126;SDS011;68528;48.814;8.904;2023-07-02T09:12:28;16.27;;;8.35;;
79126;SDS011;68528;48.814;8.904;2023-07-02T09:14:58;15.15;;;8.07;;
79126;SDS011;68528;48.814;8.904;2023-07-02T09:17:28;17.70;;;8.65;;
79126;SDS011;68528;48.814;8.904;2023-07-02T09:19:55;16.48;;;8.23;;
79126;SDS011;68528;48.814;8.904;2023-07-02T09:22:20;18.08;;;8.80;;
79126;SDS011;68528;48.814;8.904;2023-07-02T09:24:52;22.10;;;9.00;;
79126;SDS011;68528;48.814;8.904;2023-07-02T09:27:19;15.10;;;7.90;;
79126;SDS011;68528;48.814;8.904;2023-07-02T09:30:12;21.33;;;9.13;;
79126;SDS011;68528;48.814;8.904;2023-07-02T09:32:43;17.45;;;9.13;;
79126;SDS011;68528;48.814;8.904;2023-07-02T09:35:11;17.50;;;8.85;;
79126;SDS011;68528;48.814;8.904;2023-07-02T09:37:36;18.90;;;9.75;;
79126;SDS011;68528;48.814;8.904;2023-07-02T09:42:33;17.20;;;8.55;;
79126;SDS011;68528;48.814;8.904;2023-07-02T09:45:00;16.88;;;8.77;;
79126;SDS011;68528;48.814;8.904;2023-07-02T09:47:47;18.70;;;9.25;;
79126;SDS011;68528;48.814;8.904;2023-07-02T09:50:18;17.10;;;8.57;;
79126;SDS011;68528;48.814;8.904;2023-07-02T09:52:45;17.13;;;8.48;;
79126;SDS011;68528;48.814;8.904;2023-07-02T09:55:12;17.48;;;9.27;;
79126;SDS011;68528;48.814;8.904;2023-07-02T09:57:38;16.58;;;8.07;;
79126;SDS011;68528;48.814;8.904;2023-07-02T10:00:08;15.88;;;7.25;;
79126;SDS011;68528;48.814;8.904;2023-07-02T10:02:36;15.20;;;8.18;;
79126;SDS011;68528;48.814;8.904;2023-07-02T10:05:04;17.17;;;8.50;;
79126;SDS011;68528;48.814;8.904;2023-07-02T10:07:32;14.98;;;7.95;;
79126;SDS011;68528;48.814;8.904;2023-07-02T10:10:08;15.23;;;8.93;;
79126;SDS011;68528;48.814;8.904;2023-07-02T10:12:34;20.00;;;9.30;;
79126;SDS011;68528;48.814;8.904;2023-07-02T10:18:55;17.38;;;8.55;;
79126;SDS011;68528;48.814;8.904;2023-07-02T10:21:38;15.85;;;8.93;;
79126;SDS011;68528;48.814;8.904;2023-07-02T10:24:51;19.20;;;8.70;;
79126;SDS011;68528;48.814;8.904;2023-07-02T10:30:36;14.95;;;8.82;;
79126;SDS011;68528;48.814;8.904;2023-07-02T10:33:06;15.32;;;8.77;;
79126;SDS011;68528;48.814;8.904;2023-07-02T10:35:42;16.38;;;9.23;;
79126;SDS011;68528;48.814;8.904;2023-07-02T10:39:16;15.27;;;8.88;;
79126;SDS011;68528;48.814;8.904;2023-07-02T10:42:08;20.23;;;9.05;;
79126;SDS011;68528;48.814;8.904;2023-07-02T10:45:44;17.35;;;8.80;;
79126;SDS011;68528;48.814;8.904;2023-07-02T10:48:38;20.70;;;9.20;;
79126;SDS011;68528;48.814;8.904;2023-07-02T10:51:15;17.20;;;8.65;;
79126;SDS011;68528;48.814;8.904;2023-07-02T10:53:41;15.63;;;8.45;;
79126;SDS011;68528;48.814;8.904;2023-07-02T10:56:06;18.00;;;8.95;;
79126;SDS011;68528;48.814;8.904;2023-07-02T10:58:41;15.48;;;8.13;;
79126;SDS011;68528;48.814;8.904;2023-07-02T11:01:09;16.17;;;9.05;;
79126;SDS011;68528;48.814;8.904;2023-07-02T11:03:35;17.55;;;8.93;;
79126;SDS011;68528;48.814;8.904;2023-07-02T11:06:00;15.50;;;8.68;;
79126;SDS011;68528;48.814;8.904;2023-07-02T11:08:35;15.25;;;8.27;;
79126;SDS011;68528;48.814;8.904;2023-07-02T11:11:07;18.48;;;9.27;;
79126;SDS011;68528;48.814;8.904;2023-07-02T11:13:50;18.33;;;8.82;;
79126;SDS011;68528;48.814;8.904;2023-07-02T11:16:26;16.15;;;8.57;;
79126;SDS011;68528;48.814;8.904;2023-07-02T11:19:06;20.58;;;8.40;;
79126;SDS011;68528;48.814;8.904;2023-07-02T11:21:34;18.17;;;8.50;;
79126;SDS011;68528;48.814;8.904;2023-07-02T11:24:07;15.65;;;9.52;;
79126;SDS011;68528;48.814;8.904;2023-07-02T11:26:39;16.38;;;8.27;;
79126;SDS011;68528;48.814;8.904;2023-07-02T11:29:12;15.38;;;8.75;;
79126;SDS011;68528;48.814;8.904;2023-07-02T11:31:43;15.73;;;8.65;;
79126;SDS011;68528;48.814;8.904;2023-07-02T11:34:15;19.98;;;9.43;;
79126;SDS011;68528;48.814;8.904;2023-07-02T11:36:42;18.15;;;9.15;;
79126;SDS011;68528;48.814;8.904;2023-07-02T11:39:08;20.42;;;9.57;;
79126;SDS011;68528;48.814;8.904;2023-07-02T11:41:54;19.27;;;9.38;;
79126;SDS011;68528;48.814;8.904;2023-07-02T11:47:42;15.93;;;8.55;;
79126;SDS011;68528;48.814;8.904;2023-07-02T11:50:09;18.33;;;9.38;;
79126;SDS011;68528;48.814;8.904;2023-07-02T11:52:35;19.23;;;9.80;;
79126;SDS011;68528;48.814;8.904;2023-07-02T11:55:02;16.05;;;8.40;;
79126;SDS011;68528;48.814;8.904;2023-07-02T11:57:28;18.52;;;9.23;;
79126;SDS011;68528;48.814;8.904;2023-07-02T11:59:54;16.90;;;8.88;;
79126;SDS011;68528;48.814;8.904;2023-07-02T12:02:20;16.88;;;8.65;;
79126;SDS011;68528;48.814;8.904;2023-07-02T12:04:46;20.13;;;9.40;;
79126;SDS011;68528;48.814;8.904;2023-07-02T12:07:13;14.40;;;9.30;;
79126;SDS011;68528;48.814;8.904;2023-07-02T12:09:41;18.27;;;8.80;;
79126;SDS011;68528;48.814;8.904;2023-07-02T12:12:07;19.02;;;8.77;;
79126;SDS011;68528;48.814;8.904;2023-07-02T12:14:32;16.05;;;9.50;;
79126;SDS011;68528;48.814;8.904;2023-07-02T12:16:58;15.77;;;8.80;;
79126;SDS011;68528;48.814;8.904;2023-07-02T12:19:23;16.25;;;9.45;;
79126;SDS011;68528;48.814;8.904;2023-07-02T12:21:48;17.60;;;9.38;;
79126;SDS011;68528;48.814;8.904;2023-07-02T12:24:15;14.18;;;8.00;;
79126;SDS011;68528;48.814;8.904;2023-07-02T12:26:42;19.50;;;9.52;;
79126;SDS011;68528;48.814;8.904;2023-07-02T12:29:07;16.95;;;8.77;;
79126;SDS011;68528;48.814;8.904;2023-07-02T12:31:33;17.75;;;8.18;;
79126;SDS011;68528;48.814;8.904;2023-07-02T12:34:07;17.27;;;9.23;;
79126;SDS011;68528;48.814;8.904;2023-07-02T12:36:33;19.90;;;9.85;;
79126;SDS011;68528;48.814;8.904;2023-07-02T12:38:58;19.65;;;9.25;;
79126;SDS011;68528;48.814;8.904;2023-07-02T12:41:23;15.82;;;9.55;;
79126;SDS011;68528;48.814;8.904;2023-07-02T12:43:49;18.15;;;9.45;;
79126;SDS011;68528;48.814;8.904;2023-07-02T12:46:15;20.42;;;9.23;;
79126;SDS011;68528;48.814;8.904;2023-07-02T12:48:40;17.00;;;9.07;;
79126;SDS011;68528;48.814;8.904;2023-07-02T12:51:06;17.65;;;8.23;;
79126;SDS011;68528;48.814;8.904;2023-07-02T12:53:32;17.52;;;8.93;;
79126;SDS011;68528;48.814;8.904;2023-07-02T12:55:57;18.27;;;9.43;;
79126;SDS011;68528;48.814;8.904;2023-07-02T12:58:22;17.42;;;8.85;;
79126;SDS011;68528;48.814;8.904;2023-07-02T13:00:48;19.95;;;9.48;;
79126;SDS011;68528;48.814;8.904;2023-07-02T13:03:13;17.77;;;8.55;;
79126;SDS011;68528;48.814;8.904;2023-07-02T13:05:46;17.40;;;9.70;;
79126;SDS011;68528;48.814;8.904;2023-07-02T13:08:11;16.40;;;8.63;;
79126;SDS011;68528;48.814;8.904;2023-07-02T13:10:37;16.05;;;8.85;;
79126;SDS011;68528;48.814;8.904;2023-07-02T13:13:03;20.15;;;10.00;;
79126;SDS011;68528;48.814;8.904;2023-07-02T13:15:28;16.85;;;8.98;;
79126;SDS011;68528;48.814;8.904;2023-07-02T13:17:58;18.30;;;9.55;;
79126;SDS011;68528;48.814;8.904;2023-07-02T13:20:24;18.13;;;9.52;;
79126;SDS011;68528;48.814;8.904;2023-07-02T13:22:49;16.63;;;9.85;;
79126;SDS011;68528;48.814;8.904;2023-07-02T13:25:14;19.27;;;9.23;;
79126;SDS011;68528;48.814;8.904;2023-07-02T13:27:40;15.95;;;9.48;;
79126;SDS011;68528;48.814;8.904;2023-07-02T13:30:06;17.08;;;8.50;;
79126;SDS011;68528;48.814;8.904;2023-07-02T13:32:32;16.48;;;8.25;;
79126;SDS011;68528;48.814;8.904;2023-07-02T13:34:57;17.05;;;8.93;;
79126;SDS011;68528;48.814;8.904;2023-07-02T13:37:26;16.30;;;8.07;;
79126;SDS011;68528;48.814;8.904;2023-07-02T13:39:52;15.18;;;8.15;;
79126;SDS011;68528;48.814;8.904;2023-07-02T13:42:19;16.77;;;9.38;;
79126;SDS011;68528;48.814;8.904;2023-07-02T13:44:45;14.15;;;7.65;;
79126;SDS011;68528;48.814;8.904;2023-07-02T13:47:11;18.65;;;8.75;;
79126;SDS011;68528;48.814;8.904;2023-07-02T13:49:36;14.93;;;8.07;;
79126;SDS011;68528;48.814;8.904;2023-07-02T13:52:02;17.50;;;8.65;;
79126;SDS011;68528;48.814;8.904;2023-07-02T13:54:28;17.27;;;8.63;;
79126;SDS011;68528;48.814;8.904;2023-07-02T13:56:55;15.07;;;8.55;;
79126;SDS011;68528;48.814;8.904;2023-07-02T13:59:21;18.75;;;8.55;;
79126;SDS011;68528;48.814;8.904;2023-07-02T14:01:46;15.07;;;8.63;;
79126;SDS011;68528;48.814;8.904;2023-07-02T14:04:12;15.32;;;8.65;;
79126;SDS011;68528;48.814;8.904;2023-07-02T14:06:40;14.93;;;8.60;;
79126;SDS011;68528;48.814;8.904;2023-07-02T14:09:05;16.00;;;8.07;;
79126;SDS011;68528;48.814;8.904;2023-07-02T14:11:31;12.88;;;8.57;;
79126;SDS011;68528;48.814;8.904;2023-07-02T14:13:57;19.60;;;9.30;;
79126;SDS011;68528;48.814;8.904;2023-07-02T14:16:23;14.60;;;8.10;;
79126;SDS011;68528;48.814;8.904;2023-07-02T14:18:49;16.55;;;8.40;;
79126;SDS011;68528;48.814;8.904;2023-07-02T14:21:14;18.90;;;7.93;;
79126;SDS011;68528;48.814;8.904;2023-07-02T14:23:40;15.32;;;8.30;;
79126;SDS011;68528;48.814;8.904;2023-07-02T14:26:06;13.82;;;7.78;;
79126;SDS011;68528;48.814;8.904;2023-07-02T14:28:32;15.55;;;7.72;;
79126;SDS011;68528;48.814;8.904;2023-07-02T14:30:59;14.75;;;7.75;;
79126;SDS011;68528;48.814;8.904;2023-07-02T14:33:26;14.63;;;8.32;;
79126;SDS011;68528;48.814;8.904;2023-07-02T14:35:53;14.20;;;8.55;;
79126;SDS011;68528;48.814;8.904;2023-07-02T14:38:19;15.90;;;8.77;;
79126;SDS011;68528;48.814;8.904;2023-07-02T14:40:44;15.40;;;8.07;;
79126;SDS011;68528;48.814;8.904;2023-07-02T14:43:10;15.20;;;8.77;;
79126;SDS011;68528;48.814;8.904;2023-07-02T14:45:35;15.88;;;8.40;;
79126;SDS011;68528;48.814;8.904;2023-07-02T14:48:08;17.65;;;8.88;;
79126;SDS011;68528;48.814;8.904;2023-07-02T14:50:33;15.33;;;8.00;;
79126;SDS011;68528;48.814;8.904;2023-07-02T14:52:59;14.80;;;8.98;;
79126;SDS011;68528;48.814;8.904;2023-07-02T14:55:24;16.55;;;8.57;;
79126;SDS011;68528;48.814;8.904;2023-07-02T14:57:51;16.15;;;7.93;;
79126;SDS011;68528;48.814;8.904;2023-07-02T15:00:17;17.92;;;8.55;;
79126;SDS011;68528;48.814;8.904;2023-07-02T15:02:42;14.05;;;8.15;;
79126;SDS011;68528;48.814;8.904;2023-07-02T15:05:08;16.55;;;8.13;;
79126;SDS011;68528;48.814;8.904;2023-07-02T15:07:33;14.88;;;8.15;;
79126;SDS011;68528;48.814;8.904;2023-07-02T15:09:59;16.88;;;8.93;;
79126;SDS011;68528;48.814;8.904;2023-07-02T15:12:25;16.52;;;8.77;;
79126;SDS011;68528;48.814;8.904;2023-07-02T15:14:50;16.20;;;8.13;;
79126;SDS011;68528;48.814;8.904;2023-07-02T15:17:15;16.40;;;8.80;;
79126;SDS011;68528;48.814;8.904;2023-07-02T15:19:41;15.10;;;8.68;;
79126;SDS011;68528;48.814;8.904;2023-07-02T15:22:06;17.23;;;8.40;;
79126;SDS011;68528;48.814;8.904;2023-07-02T15:24:31;12.37;;;7.80;;
79126;SDS011;68528;48.814;8.904;2023-07-02T15:26:57;15.75;;;8.45;;
79126;SDS011;68528;48.814;8.904;2023-07-02T15:29:22;16.77;;;8.82;;
79126;SDS011;68528;48.814;8.904;2023-07-02T15:31:47;16.85;;;8.75;;
79126;SDS011;68528;48.814;8.904;2023-07-02T15:34:13;17.42;;;8.48;;
79126;SDS011;68528;48.814;8.904;2023-07-02T15:36:43;20.08;;;9.05;;
79126;SDS011;68528;48.814;8.904;2023-07-02T15:39:09;17.92;;;8.38;;
79126;SDS011;68528;48.814;8.904;2023-07-02T15:41:34;16.90;;;8.63;;